Time;durP1;ratioP1;P1;durP2;ratioP2;P2;SDS_P1;SDS_P2;PMS_P1;PMS_P2;Temp;Humidity;BMP_temperature;BMP_pressure;BME280_temperature;BME280_humidity;BME280_pressure;Samples;Min_cycle;Max_cycle;Signal;HPM_P1;HPM_P2
2023/04/05 00:00:10;;;;;;;0.10;0.10;;;3.30;99.90;;;;;;5057837;28;20300;-82
2023/04/05 00:02:35;;;;;;;0.00;0.00;;;3.40;99.90;;;;;;5061374;28;20216;-83
2023/04/05 00:05:04;;;;;;;0.10;0.10;;;3.30;99.90;;;;;;5058353;28;20225;-81
2023/04/05 00:07:29;;;;;;;0.10;0.10;;;3.20;99.90;;;;;;5063410;28;20648;-81
2023/04/05 00:09:55;;;;;;;0.10;0.10;;;3.20;99.90;;;;;;5060863;28;20287;-82
2023/04/05 00:12:20;;;;;;;0.07;0.07;;;3.20;99.90;;;;;;5059733;28;20212;-82
2023/04/05 00:14:46;;;;;;;0.00;0.00;;;3.20;99.90;;;;;;5059303;28;20250;-82
2023/04/05 00:17:12;;;;;;;0.00;0.00;;;3.20;99.90;;;;;;5061139;28;20189;-82
2023/04/05 00:19:38;;;;;;;0.00;0.00;;;3.20;99.90;;;;;;5061123;28;20289;-83
2023/04/05 00:22:03;;;;;;;0.00;0.00;;;3.30;99.90;;;;;;5063109;28;20210;-82
2023/04/05 00:24:29;;;;;;;0.00;0.00;;;3.30;99.90;;;;;;5065603;28;20224;-82
2023/04/05 00:26:56;;;;;;;0.00;0.00;;;3.30;99.90;;;;;;5062810;28;20192;-81
2023/04/05 00:29:21;;;;;;;0.10;0.10;;;3.30;99.90;;;;;;5065807;28;20663;-82
2023/04/05 00:31:47;;;;;;;0.10;0.10;;;3.20;99.90;;;;;;5057256;28;20233;-83
2023/04/05 00:34:12;;;;;;;0.00;0.00;;;3.20;99.90;;;;;;5062819;28;20209;-83
2023/04/05 00:36:38;;;;;;;0.00;0.00;;;3.10;99.90;;;;;;5064446;28;20191;-81
2023/04/05 00:39:04;;;;;;;0.10;0.10;;;3.00;99.90;;;;;;5064343;28;20193;-82
2023/04/05 00:41:29;;;;;;;0.10;0.10;;;3.00;99.90;;;;;;5057779;28;20213;-82
2023/04/05 00:43:55;;;;;;;0.00;0.00;;;3.00;99.90;;;;;;5059720;28;20261;-83
2023/04/05 00:46:21;;;;;;;0.10;0.10;;;2.90;99.90;;;;;;5057244;28;20188;-81
2023/04/05 00:48:47;;;;;;;0.00;0.00;;;2.90;99.90;;;;;;5061172;28;20199;-82
2023/04/05 00:51:12;;;;;;;0.10;0.10;;;2.90;99.90;;;;;;5055549;28;20209;-82
2023/04/05 00:53:39;;;;;;;0.10;0.10;;;2.90;99.90;;;;;;5058213;28;20184;-81
2023/04/05 00:56:05;;;;;;;0.10;0.10;;;3.00;99.90;;;;;;5061582;28;20188;-81
2023/04/05 00:58:32;;;;;;;0.00;0.00;;;3.00;99.90;;;;;;5059558;28;20956;-81
2023/04/05 01:01:17;;;;;;;0.10;0.10;;;2.90;99.90;;;;;;5062267;28;20181;-81
2023/04/05 01:03:52;;;;;;;0.10;0.10;;;2.90;99.90;;;;;;5065296;28;20212;-82
2023/04/05 01:06:42;;;;;;;0.10;0.10;;;2.90;99.90;;;;;;5062423;28;20179;-80
2023/04/05 01:09:39;;;;;;;0.00;0.00;;;2.80;99.90;;;;;;5066273;28;20632;-81
2023/04/05 01:12:07;;;;;;;0.10;0.10;;;2.80;99.90;;;;;;5063569;28;20208;-81
2023/04/05 01:14:46;;;;;;;0.10;0.10;;;2.80;99.90;;;;;;5065398;28;20188;-80
2023/04/05 01:17:12;;;;;;;0.00;0.00;;;2.70;99.90;;;;;;5063851;28;20184;-81
2023/04/05 01:19:40;;;;;;;0.10;0.10;;;2.70;99.90;;;;;;5061860;28;20203;-81
2023/04/05 01:22:36;;;;;;;0.10;0.10;;;2.70;99.90;;;;;;5064937;28;20215;-82
2023/04/05 01:25:27;;;;;;;0.07;0.07;;;2.70;99.90;;;;;;5064997;28;20223;-81
2023/04/05 01:27:52;;;;;;;0.00;0.00;;;2.60;99.90;;;;;;5060421;28;20177;-81
2023/04/05 01:30:23;;;;;;;0.10;0.10;;;2.60;99.90;;;;;;5058476;28;20501;-81
2023/04/05 01:33:06;;;;;;;0.10;0.10;;;2.60;99.90;;;;;;5060702;28;20890;-80
2023/04/05 01:35:49;;;;;;;0.00;0.00;;;2.50;99.90;;;;;;5060018;28;20180;-81
2023/04/05 01:38:21;;;;;;;0.00;0.00;;;2.50;99.90;;;;;;5063112;28;20192;-81
2023/04/05 01:40:47;;;;;;;0.03;0.03;;;2.50;99.90;;;;;;5081105;28;20645;-81
2023/04/05 01:43:17;;;;;;;0.10;0.10;;;2.40;99.90;;;;;;5063903;28;20285;-81
2023/04/05 01:45:44;;;;;;;0.10;0.10;;;2.40;99.90;;;;;;5060098;28;20612;-81
2023/04/05 01:48:10;;;;;;;0.10;0.10;;;2.40;99.90;;;;;;5066288;28;20557;-81
2023/04/05 01:50:35;;;;;;;0.00;0.00;;;2.40;99.90;;;;;;5059870;28;20190;-81
2023/04/05 01:53:01;;;;;;;0.10;0.10;;;2.40;99.90;;;;;;5061447;28;20219;-81
2023/04/05 01:55:26;;;;;;;0.10;0.10;;;2.30;99.90;;;;;;5065995;28;20187;-80
2023/04/05 01:57:55;;;;;;;0.10;0.10;;;2.30;99.90;;;;;;5061533;28;20206;-80
2023/04/05 02:00:21;;;;;;;0.00;0.00;;;2.30;99.90;;;;;;5065503;28;20242;-81
2023/04/05 02:02:46;;;;;;;0.10;0.10;;;2.30;99.90;;;;;;5061558;28;20866;-81
2023/04/05 02:05:12;;;;;;;0.10;0.10;;;2.30;99.90;;;;;;5064479;28;20570;-81
2023/04/05 02:07:38;;;;;;;0.10;0.10;;;2.20;99.90;;;;;;5059330;28;20937;-81
2023/04/05 02:10:04;;;;;;;0.10;0.10;;;2.20;99.90;;;;;;5064489;28;20311;-80
2023/04/05 02:12:30;;;;;;;0.10;0.10;;;2.20;99.90;;;;;;5065094;28;20199;-81
2023/04/05 02:14:56;;;;;;;0.00;0.00;;;2.20;99.90;;;;;;5063232;28;20206;-81
2023/04/05 02:17:21;;;;;;;0.00;0.00;;;2.10;99.90;;;;;;5058733;28;20196;-80
2023/04/05 02:19:48;;;;;;;0.10;0.10;;;2.00;99.90;;;;;;5059358;28;20315;-80
2023/04/05 02:22:14;;;;;;;0.03;0.03;;;2.00;99.90;;;;;;5056875;28;20212;-81
2023/04/05 02:24:40;;;;;;;0.10;0.10;;;2.00;99.90;;;;;;5060734;28;20203;-80
2023/04/05 02:27:06;;;;;;;0.10;0.10;;;2.00;99.90;;;;;;5058879;28;20184;-80
2023/04/05 02:29:32;;;;;;;0.10;0.10;;;1.90;99.90;;;;;;5065295;28;20191;-81
2023/04/05 02:31:57;;;;;;;0.10;0.10;;;1.80;99.90;;;;;;5064028;28;20727;-81
2023/04/05 02:34:23;;;;;;;0.10;0.10;;;1.80;99.90;;;;;;5058362;28;20653;-81
2023/04/05 02:36:52;;;;;;;0.10;0.10;;;1.70;99.90;;;;;;5063846;28;20252;-80
2023/04/05 02:39:18;;;;;;;0.03;0.03;;;1.70;99.90;;;;;;5060520;28;20731;-81
2023/04/05 02:41:44;;;;;;;0.00;0.00;;;1.70;99.90;;;;;;5057465;28;20201;-81
2023/04/05 02:44:10;;;;;;;0.10;0.10;;;1.60;99.90;;;;;;5080926;28;20215;-81
2023/04/05 02:46:35;;;;;;;0.10;0.10;;;1.60;99.90;;;;;;5060073;28;20180;-81
2023/04/05 02:49:01;;;;;;;0.10;0.10;;;1.60;99.90;;;;;;5064422;28;20197;-81
2023/04/05 02:51:26;;;;;;;0.10;0.10;;;1.50;99.90;;;;;;5058887;28;20744;-81
2023/04/05 02:53:52;;;;;;;0.10;0.10;;;1.50;99.90;;;;;;5059146;28;20228;-80
2023/04/05 02:56:18;;;;;;;0.00;0.00;;;1.50;99.90;;;;;;5064142;28;20972;-81
2023/04/05 02:58:44;;;;;;;0.10;0.10;;;1.60;99.90;;;;;;5064612;28;20291;-80
2023/04/05 03:01:10;;;;;;;0.00;0.00;;;1.60;99.90;;;;;;5063787;28;20246;-80
2023/04/05 03:03:36;;;;;;;0.10;0.10;;;1.60;99.90;;;;;;5060416;28;20623;-81
2023/04/05 03:06:10;;;;;;;2.63;2.53;;;1.60;99.90;;;;;;5064703;28;20180;-81
2023/04/05 03:08:37;;;;;;;0.10;0.10;;;1.70;99.90;;;;;;5062568;28;20273;-80
2023/04/05 03:11:05;;;;;;;0.10;0.10;;;1.70;99.90;;;;;;5064292;28;20208;-81
2023/04/05 03:13:31;;;;;;;0.10;0.10;;;1.70;99.90;;;;;;5062925;28;20885;-81
2023/04/05 03:15:56;;;;;;;0.03;0.03;;;1.70;99.90;;;;;;5061917;28;20278;-80
2023/04/05 03:18:25;;;;;;;0.10;0.10;;;1.70;99.90;;;;;;5058129;28;20239;-81
2023/04/05 03:20:57;;;;;;;0.10;0.10;;;1.70;99.90;;;;;;5060568;28;20195;-81
2023/04/05 03:23:30;;;;;;;0.10;0.10;;;1.60;99.90;;;;;;5063190;28;20184;-81
2023/04/05 03:26:02;;;;;;;0.00;0.00;;;1.60;99.90;;;;;;5061985;28;20203;-81
2023/04/05 03:28:31;;;;;;;0.00;0.00;;;1.50;99.90;;;;;;5058694;28;20185;-81
2023/04/05 03:30:56;;;;;;;0.10;0.10;;;1.50;99.90;;;;;;5060267;28;20519;-81
2023/04/05 03:33:22;;;;;;;0.10;0.10;;;1.40;99.90;;;;;;5058772;28;20186;-81
2023/04/05 03:35:48;;;;;;;0.10;0.10;;;1.40;99.90;;;;;;5060500;28;20195;-81
2023/04/05 03:38:13;;;;;;;0.10;0.10;;;1.40;99.90;;;;;;5060323;28;20193;-80
2023/04/05 03:40:39;;;;;;;0.20;0.20;;;1.40;99.90;;;;;;5056916;28;20739;-80
2023/04/05 03:43:04;;;;;;;0.10;0.10;;;1.30;99.90;;;;;;5064031;28;20309;-80
2023/04/05 03:45:30;;;;;;;0.10;0.10;;;1.30;99.90;;;;;;5054839;28;20291;-81
2023/04/05 03:47:57;;;;;;;0.07;0.07;;;1.30;99.90;;;;;;5058073;28;20289;-81
2023/04/05 03:50:23;;;;;;;0.10;0.10;;;1.30;99.90;;;;;;5060684;28;21921;-81
2023/04/05 03:52:48;;;;;;;0.10;0.10;;;1.40;99.90;;;;;;5064120;28;20211;-80
2023/04/05 03:55:15;;;;;;;0.10;0.10;;;1.30;99.90;;;;;;5063364;28;20185;-81
2023/04/05 03:57:41;;;;;;;0.10;0.10;;;1.30;99.90;;;;;;5062566;28;20274;-81
2023/04/05 04:00:13;;;;;;;0.10;0.10;;;1.30;99.90;;;;;;5064166;28;20270;-80
2023/04/05 04:02:43;;;;;;;0.00;0.00;;;1.40;99.90;;;;;;5061609;28;20218;-81
2023/04/05 04:05:10;;;;;;;0.10;0.10;;;1.30;99.90;;;;;;5059690;28;20243;-81
2023/04/05 04:07:36;;;;;;;0.10;0.10;;;1.30;99.90;;;;;;5058061;28;20182;-81
2023/04/05 04:10:04;;;;;;;0.00;0.00;;;1.30;99.90;;;;;;5063996;28;20187;-80
2023/04/05 04:12:29;;;;;;;0.10;0.10;;;1.30;99.90;;;;;;5063839;28;20228;-81
2023/04/05 04:14:55;;;;;;;0.10;0.10;;;1.30;99.90;;;;;;5058218;28;20183;-81
2023/04/05 04:17:32;;;;;;;0.10;0.10;;;1.30;99.90;;;;;;5061495;28;20195;-81
2023/04/05 04:19:58;;;;;;;3.93;1.60;;;1.30;99.90;;;;;;5060626;28;20191;-82
2023/04/05 04:22:25;;;;;;;0.10;0.10;;;1.20;99.90;;;;;;5058217;28;20231;-80
2023/04/05 04:24:54;;;;;;;0.10;0.10;;;1.20;99.90;;;;;;5062096;28;20209;-81
2023/04/05 04:27:20;;;;;;;0.10;0.10;;;1.10;99.90;;;;;;5058989;28;20207;-81
2023/04/05 04:29:46;;;;;;;0.10;0.10;;;1.10;99.90;;;;;;5062040;28;20255;-80
2023/04/05 04:32:14;;;;;;;0.00;0.00;;;1.00;99.90;;;;;;5061737;28;20203;-81
2023/04/05 04:34:43;;;;;;;0.10;0.10;;;1.00;99.90;;;;;;5082058;28;20244;-80
2023/04/05 04:37:21;;;;;;;0.10;0.10;;;0.90;99.90;;;;;;5063946;28;20782;-81
2023/04/05 04:39:47;;;;;;;0.10;0.10;;;0.80;99.90;;;;;;5066572;28;20265;-80
2023/04/05 04:42:18;;;;;;;0.10;0.10;;;0.80;99.90;;;;;;5066507;28;20218;-81
2023/04/05 04:44:44;;;;;;;0.10;0.10;;;0.80;99.90;;;;;;5065155;28;20284;-80
2023/04/05 04:47:12;;;;;;;0.10;0.10;;;0.70;99.90;;;;;;5062855;28;20194;-80
2023/04/05 04:49:38;;;;;;;0.10;0.10;;;0.70;99.90;;;;;;5064061;28;20189;-81
2023/04/05 04:52:04;;;;;;;0.10;0.10;;;0.70;99.90;;;;;;5066009;28;20297;-80
2023/04/05 04:54:32;;;;;;;0.10;0.10;;;0.80;99.90;;;;;;5060322;28;20247;-81
2023/04/05 04:56:58;;;;;;;0.10;0.10;;;0.70;99.90;;;;;;5066464;28;20553;-80
2023/04/05 04:59:24;;;;;;;0.10;0.10;;;0.80;99.90;;;;;;5066462;28;20194;-81
2023/04/05 05:01:50;;;;;;;0.10;0.10;;;0.80;99.90;;;;;;5057740;28;20226;-82
2023/04/05 05:04:15;;;;;;;0.10;0.10;;;1.00;99.90;;;;;;5063980;28;20211;-83
2023/04/05 05:06:41;;;;;;;0.10;0.10;;;0.90;99.90;;;;;;5064025;28;20184;-82
2023/04/05 05:09:06;;;;;;;0.10;0.10;;;1.00;99.90;;;;;;5068586;28;20285;-81
2023/04/05 05:11:32;;;;;;;0.10;0.10;;;0.90;99.90;;;;;;5064128;28;20223;-81
2023/04/05 05:13:58;;;;;;;0.10;0.10;;;0.90;99.90;;;;;;5067801;28;20282;-81
2023/04/05 05:16:23;;;;;;;0.10;0.10;;;0.90;99.90;;;;;;5059791;28;20192;-82
2023/04/05 05:18:50;;;;;;;0.10;0.10;;;1.00;99.90;;;;;;5062374;28;20734;-82
2023/04/05 05:21:16;;;;;;;0.10;0.10;;;1.10;99.90;;;;;;5063167;28;20207;-82
2023/04/05 05:23:42;;;;;;;0.10;0.10;;;1.10;99.90;;;;;;5063681;28;20434;-82
2023/04/05 05:26:07;;;;;;;0.10;0.10;;;1.20;99.90;;;;;;5066614;28;20186;-82
2023/04/05 05:28:33;;;;;;;0.10;0.10;;;1.20;99.90;;;;;;5064232;28;20771;-81
2023/04/05 05:30:58;;;;;;;0.10;0.10;;;1.10;99.90;;;;;;5060150;28;20177;-82
2023/04/05 05:33:25;;;;;;;0.10;0.10;;;1.20;99.90;;;;;;5064372;28;20205;-83
2023/04/05 05:35:51;;;;;;;0.10;0.10;;;1.20;99.90;;;;;;5064081;28;20681;-82
2023/04/05 05:38:17;;;;;;;0.10;0.10;;;1.30;99.90;;;;;;5064447;28;20178;-81
2023/04/05 05:40:43;;;;;;;0.10;0.10;;;1.40;99.90;;;;;;5060083;28;20210;-82
2023/04/05 05:43:11;;;;;;;0.10;0.10;;;1.40;99.90;;;;;;5068825;28;20204;-82
2023/04/05 05:45:37;;;;;;;0.07;0.07;;;1.40;99.90;;;;;;5060874;28;20310;-81
2023/04/05 05:48:03;;;;;;;0.10;0.10;;;1.60;99.90;;;;;;5055569;28;20266;-81
2023/04/05 05:50:31;;;;;;;0.10;0.10;;;1.60;99.90;;;;;;5061972;28;20254;-81
2023/04/05 05:52:57;;;;;;;0.10;0.10;;;1.80;99.90;;;;;;5062078;28;20208;-81
2023/04/05 05:55:23;;;;;;;0.00;0.00;;;1.90;99.90;;;;;;5062794;28;20197;-80
2023/04/05 05:57:48;;;;;;;0.10;0.10;;;2.00;99.90;;;;;;5063770;28;20619;-81
2023/04/05 06:00:14;;;;;;;0.10;0.10;;;2.10;99.90;;;;;;5062611;28;21100;-81
2023/04/05 06:02:40;;;;;;;0.10;0.10;;;2.10;99.90;;;;;;5059579;28;20293;-81
2023/04/05 06:05:06;;;;;;;0.10;0.10;;;2.30;99.90;;;;;;5061764;28;20673;-81
2023/04/05 06:07:35;;;;;;;0.07;0.07;;;2.40;99.90;;;;;;5065451;28;20347;-81
2023/04/05 06:10:00;;;;;;;0.07;0.07;;;2.70;99.90;;;;;;5062907;28;20657;-81
2023/04/05 06:12:26;;;;;;;0.10;0.10;;;2.90;99.90;;;;;;5057662;28;20245;-80
2023/04/05 06:14:51;;;;;;;0.03;0.03;;;3.10;99.90;;;;;;5057075;28;20195;-81
2023/04/05 06:17:17;;;;;;;0.10;0.10;;;3.20;99.90;;;;;;5058544;28;20176;-81
2023/04/05 06:19:43;;;;;;;0.10;0.10;;;3.40;99.90;;;;;;5063769;28;20257;-81
2023/04/05 06:22:08;;;;;;;0.10;0.10;;;3.60;99.90;;;;;;5063999;28;20341;-82
2023/04/05 06:24:34;;;;;;;0.10;0.10;;;3.70;99.90;;;;;;5060583;28;20208;-81
2023/04/05 06:27:00;;;;;;;0.07;0.07;;;3.80;99.90;;;;;;5062877;28;20177;-81
2023/04/05 06:29:25;;;;;;;0.10;0.10;;;4.10;99.90;;;;;;5058073;28;20176;-81
2023/04/05 06:31:51;;;;;;;0.00;0.00;;;4.10;99.90;;;;;;5055125;28;20273;-81
2023/04/05 06:34:17;;;;;;;0.10;0.10;;;4.40;99.90;;;;;;5056636;28;20177;-80
2023/04/05 06:36:42;;;;;;;0.00;0.00;;;4.60;99.90;;;;;;5066013;28;20199;-80
2023/04/05 06:39:08;;;;;;;0.10;0.10;;;4.60;99.90;;;;;;5058444;28;20214;-81
2023/04/05 06:41:34;;;;;;;0.10;0.10;;;4.90;99.90;;;;;;5063925;28;20216;-81
2023/04/05 06:43:59;;;;;;;0.10;0.10;;;5.20;99.90;;;;;;5064909;28;20680;-81
2023/04/05 06:46:25;;;;;;;0.10;0.10;;;5.20;99.90;;;;;;5060126;28;20200;-81
2023/04/05 06:48:51;;;;;;;0.10;0.10;;;5.40;99.90;;;;;;5062926;28;20642;-81
2023/04/05 06:51:17;;;;;;;0.10;0.10;;;5.60;99.90;;;;;;5061459;28;20633;-81
2023/04/05 06:53:43;;;;;;;0.10;0.10;;;5.50;99.90;;;;;;5062557;28;20178;-81
2023/04/05 06:56:09;;;;;;;0.10;0.10;;;5.40;99.90;;;;;;5060707;28;20255;-81
2023/04/05 06:58:35;;;;;;;0.10;0.10;;;5.60;99.90;;;;;;5060479;28;20614;-81
2023/04/05 07:01:01;;;;;;;0.03;0.03;;;5.80;99.90;;;;;;5062103;28;20196;-81
2023/04/05 07:03:27;;;;;;;0.10;0.10;;;5.90;99.90;;;;;;5065507;28;20207;-80
2023/04/05 07:05:55;;;;;;;0.03;0.03;;;5.70;99.90;;;;;;5062897;28;20259;-81
2023/04/05 07:08:22;;;;;;;0.10;0.10;;;5.90;99.90;;;;;;5063677;28;20229;-81
2023/04/05 07:10:49;;;;;;;0.00;0.00;;;6.20;99.90;;;;;;5064679;28;20264;-81
2023/04/05 07:13:16;;;;;;;0.00;0.00;;;6.40;99.90;;;;;;5061493;28;20751;-80
2023/04/05 07:15:45;;;;;;;0.10;0.10;;;6.60;99.90;;;;;;5061360;28;20266;-81
2023/04/05 07:18:11;;;;;;;0.10;0.10;;;6.60;99.90;;;;;;5063849;28;20221;-80
2023/04/05 07:20:37;;;;;;;0.00;0.00;;;6.80;99.90;;;;;;5062590;28;20681;-81
2023/04/05 07:23:04;;;;;;;0.10;0.10;;;6.60;99.90;;;;;;5060487;28;20296;-81
2023/04/05 07:25:31;;;;;;;0.10;0.10;;;6.90;99.90;;;;;;5060259;28;20286;-81
2023/04/05 07:27:56;;;;;;;0.10;0.10;;;6.70;99.90;;;;;;5054673;28;20180;-82
2023/04/05 07:30:22;;;;;;;0.10;0.10;;;6.50;99.90;;;;;;5062259;28;20182;-80
2023/04/05 07:32:47;;;;;;;0.00;0.00;;;6.50;99.90;;;;;;5051878;28;20209;-81
2023/04/05 07:35:13;;;;;;;0.10;0.10;;;6.40;99.90;;;;;;5054605;28;20181;-81
2023/04/05 07:37:39;;;;;;;0.10;0.10;;;6.90;99.90;;;;;;5057330;28;20191;-81
2023/04/05 07:40:06;;;;;;;0.10;0.10;;;6.70;99.90;;;;;;5058206;28;20264;-81
2023/04/05 07:42:32;;;;;;;0.10;0.10;;;6.50;99.90;;;;;;5057048;28;20249;-81
2023/04/05 07:44:58;;;;;;;0.10;0.10;;;6.30;99.90;;;;;;5057374;28;20215;-81
2023/04/05 07:47:23;;;;;;;0.10;0.10;;;6.60;99.90;;;;;;5058162;28;20179;-80
2023/04/05 07:49:49;;;;;;;0.10;0.10;;;6.60;99.90;;;;;;5060623;28;20648;-82
2023/04/05 07:52:15;;;;;;;0.10;0.10;;;6.20;99.90;;;;;;5058830;28;20202;-81
2023/04/05 07:54:42;;;;;;;0.10;0.10;;;6.50;99.90;;;;;;5057690;28;20192;-81
2023/04/05 07:57:09;;;;;;;0.00;0.00;;;6.80;99.90;;;;;;5056996;28;20182;-81
2023/04/05 07:59:34;;;;;;;0.10;0.10;;;6.60;99.90;;;;;;5059451;28;20229;-81
2023/04/05 08:02:00;;;;;;;0.10;0.10;;;6.60;99.90;;;;;;5054906;28;20288;-81
2023/04/05 08:04:25;;;;;;;0.10;0.10;;;6.80;99.90;;;;;;5059985;28;20195;-81
2023/04/05 08:06:52;;;;;;;0.10;0.10;;;7.00;99.90;;;;;;5060773;28;20216;-81
2023/04/05 08:09:17;;;;;;;0.10;0.10;;;7.30;99.90;;;;;;5057124;28;20541;-80
2023/04/05 08:11:43;;;;;;;0.10;0.10;;;7.70;99.90;;;;;;5059079;28;20197;-80
2023/04/05 08:14:09;;;;;;;0.10;0.10;;;7.90;99.90;;;;;;5055090;28;20179;-81
2023/04/05 08:16:34;;;;;;;0.10;0.10;;;7.90;99.90;;;;;;5060765;28;20832;-81
2023/04/05 08:19:00;;;;;;;0.10;0.10;;;7.30;99.90;;;;;;5058903;28;20629;-80
2023/04/05 08:21:26;;;;;;;0.10;0.10;;;7.30;99.90;;;;;;5060772;28;20215;-81
2023/04/05 08:23:52;;;;;;;0.10;0.10;;;8.00;99.90;;;;;;5060160;28;20684;-81
2023/04/05 08:26:17;;;;;;;0.10;0.10;;;7.90;99.90;;;;;;5053332;28;20184;-81
2023/04/05 08:28:43;;;;;;;0.10;0.10;;;7.80;99.90;;;;;;5060348;28;20219;-81
2023/04/05 08:31:09;;;;;;;0.10;0.10;;;7.50;99.90;;;;;;5053842;28;20177;-80
2023/04/05 08:33:35;;;;;;;0.07;0.07;;;7.10;99.90;;;;;;5060329;28;20184;-80
2023/04/05 08:36:05;;;;;;;0.10;0.10;;;7.70;99.90;;;;;;5047765;28;20260;-81
2023/04/05 08:38:31;;;;;;;0.10;0.10;;;8.40;99.90;;;;;;5054038;28;20201;-81
2023/04/05 08:41:11;;;;;;;0.10;0.10;;;8.70;99.90;;;;;;5054188;28;20255;-81
2023/04/05 08:43:46;;;;;;;0.10;0.10;;;9.00;99.90;;;;;;5056666;28;20189;-81
2023/04/05 08:46:15;;;;;;;0.10;0.10;;;9.20;99.90;;;;;;5055019;28;20195;-80
2023/04/05 08:48:41;;;;;;;0.00;0.00;;;9.30;99.90;;;;;;5055327;28;20193;-81
2023/04/05 08:51:08;;;;;;;0.10;0.10;;;9.40;99.90;;;;;;5055398;28;20479;-81
2023/04/05 08:53:34;;;;;;;0.10;0.10;;;9.70;99.90;;;;;;5061666;28;20185;-80
2023/04/05 08:56:01;;;;;;;0.10;0.10;;;9.80;99.90;;;;;;5059286;28;20437;-81
2023/04/05 08:58:30;;;;;;;0.10;0.10;;;8.60;99.90;;;;;;5054907;28;20189;-81
2023/04/05 09:00:57;;;;;;;0.10;0.10;;;9.20;99.90;;;;;;5061039;28;20193;-81
2023/04/05 09:03:27;;;;;;;0.10;0.10;;;9.40;99.90;;;;;;5060944;28;20207;-81
2023/04/05 09:05:53;;;;;;;0.10;0.10;;;9.10;99.90;;;;;;5058170;28;20216;-81
2023/04/05 09:08:22;;;;;;;0.10;0.10;;;9.30;99.90;;;;;;5061270;28;20211;-82
2023/04/05 09:10:51;;;;;;;0.10;0.10;;;9.70;99.90;;;;;;5059033;28;20189;-81
2023/04/05 09:13:17;;;;;;;0.10;0.10;;;10.00;99.90;;;;;;5055729;28;20212;-82
2023/04/05 09:15:43;;;;;;;0.10;0.10;;;10.00;99.90;;;;;;5055045;28;20192;-81
2023/04/05 09:18:09;;;;;;;0.10;0.10;;;9.50;99.90;;;;;;5058863;28;20191;-82
2023/04/05 09:20:35;;;;;;;0.10;0.10;;;9.90;99.90;;;;;;5058582;28;20583;-82
2023/04/05 09:23:00;;;;;;;0.10;0.10;;;10.10;99.90;;;;;;5058005;28;20205;-81
2023/04/05 09:25:41;;;;;;;0.10;0.10;;;10.30;99.90;;;;;;5057947;28;20214;-81
2023/04/05 09:28:08;;;;;;;0.10;0.10;;;9.30;99.90;;;;;;5061844;28;20181;-81
2023/04/05 09:30:36;;;;;;;0.10;0.10;;;9.90;99.90;;;;;;5063509;28;20704;-81
2023/04/05 09:33:06;;;;;;;0.10;0.10;;;10.30;99.90;;;;;;5060138;28;21288;-81
2023/04/05 09:35:32;;;;;;;0.10;0.10;;;10.60;99.90;;;;;;5059281;28;20651;-81
2023/04/05 09:38:03;;;;;;;0.10;0.10;;;10.60;99.90;;;;;;5060539;28;20198;-82
2023/04/05 09:40:42;;;;;;;0.10;0.10;;;10.80;99.90;;;;;;5064644;28;20181;-81
2023/04/05 09:43:10;;;;;;;0.10;0.10;;;11.00;99.90;;;;;;5062877;28;20229;-81
2023/04/05 09:45:44;;;;;;;0.07;0.07;;;11.20;99.90;;;;;;5062777;28;20253;-81
2023/04/05 09:48:11;;;;;;;0.00;0.00;;;10.80;99.90;;;;;;5062238;28;20173;-81
2023/04/05 09:50:37;;;;;;;0.10;0.10;;;10.90;99.90;;;;;;5059755;28;20178;-81
2023/04/05 09:53:14;;;;;;;0.10;0.10;;;11.00;99.90;;;;;;5061392;28;20231;-81
2023/04/05 09:55:41;;;;;;;0.10;0.10;;;11.10;99.90;;;;;;5059530;28;20266;-81
2023/04/05 09:58:20;;;;;;;0.10;0.10;;;11.00;99.90;;;;;;5057347;28;20192;-82
2023/04/05 10:00:52;;;;;;;0.10;0.10;;;11.00;99.90;;;;;;5065173;28;20189;-81
2023/04/05 10:03:18;;;;;;;0.10;0.10;;;10.50;99.90;;;;;;5060517;28;20221;-81
2023/04/05 10:05:44;;;;;;;0.03;0.03;;;10.80;99.90;;;;;;5060701;28;20215;-82
2023/04/05 10:08:10;;;;;;;0.10;0.10;;;10.50;99.90;;;;;;5058973;28;20189;-81
2023/04/05 10:10:46;;;;;;;0.03;0.03;;;10.40;99.90;;;;;;5062411;28;20196;-82
2023/04/05 10:13:14;;;;;;;0.10;0.10;;;9.40;99.90;;;;;;5062997;28;20216;-81
2023/04/05 10:15:44;;;;;;;0.10;0.10;;;9.80;99.90;;;;;;5060470;28;20233;-82
2023/04/05 10:18:16;;;;;;;0.10;0.10;;;10.30;99.90;;;;;;5059303;28;20184;-82
2023/04/05 10:20:47;;;;;;;0.20;0.20;;;10.40;99.90;;;;;;5059792;28;20193;-81
2023/04/05 10:23:15;;;;;;;0.10;0.10;;;10.30;99.90;;;;;;5049746;28;20925;-82
2023/04/05 10:25:53;;;;;;;0.10;0.10;;;10.60;99.90;;;;;;5047646;28;20585;-82
2023/04/05 10:28:34;;;;;;;0.10;0.10;;;11.10;99.90;;;;;;5057253;28;20491;-82
2023/04/05 10:31:38;;;;;;;0.10;0.10;;;11.50;99.90;;;;;;5061972;28;20224;-82
2023/04/05 10:34:05;;;;;;;0.10;0.10;;;11.80;99.90;;;;;;5062546;28;20197;-86
2023/04/05 10:36:56;;;;;;;0.10;0.10;;;11.80;99.90;;;;;;5062068;28;20191;-82
2023/04/05 10:39:28;;;;;;;0.10;0.10;;;10.70;99.90;;;;;;5059013;28;20177;-81
2023/04/05 10:41:59;;;;;;;0.03;0.03;;;10.80;99.90;;;;;;5060703;28;20209;-82
2023/04/05 10:44:25;;;;;;;0.10;0.10;;;10.50;99.90;;;;;;5058085;28;20200;-81
2023/04/05 10:46:53;;;;;;;0.10;0.10;;;10.90;99.90;;;;;;5060141;28;20804;-82
2023/04/05 10:49:46;;;;;;;0.10;0.10;;;10.90;99.90;;;;;;5062399;28;20177;-82
2023/04/05 10:52:12;;;;;;;0.10;0.10;;;11.40;99.90;;;;;;5058831;28;20217;-81
2023/04/05 10:54:37;;;;;;;0.10;0.10;;;11.80;99.90;;;;;;5059394;28;20185;-82
2023/04/05 10:57:06;;;;;;;0.10;0.10;;;11.90;99.90;;;;;;5060075;28;21231;-82
2023/04/05 10:59:33;;;;;;;0.10;0.10;;;11.90;99.90;;;;;;5057672;28;20353;-82
2023/04/05 11:01:59;;;;;;;0.10;0.10;;;11.50;99.90;;;;;;5062796;28;20218;-82
2023/04/05 11:04:25;;;;;;;0.10;0.10;;;11.20;99.90;;;;;;5060997;28;20206;-81
2023/04/05 11:07:14;;;;;;;0.10;0.10;;;10.10;99.90;;;;;;5056975;28;20188;-81
2023/04/05 11:09:50;;;;;;;0.10;0.10;;;10.00;99.90;;;;;;5067057;28;20192;-81
2023/04/05 11:12:16;;;;;;;0.10;0.10;;;10.40;99.90;;;;;;5066347;28;20909;-81
2023/04/05 11:14:43;;;;;;;0.10;0.10;;;10.40;99.90;;;;;;5063885;28;20202;-81
2023/04/05 11:17:26;;;;;;;0.10;0.10;;;11.10;99.90;;;;;;5065782;28;20219;-81
2023/04/05 11:20:04;;;;;;;0.10;0.10;;;11.30;99.90;;;;;;5065652;28;20242;-80
2023/04/05 11:22:30;;;;;;;0.10;0.10;;;11.80;99.90;;;;;;5066658;28;20201;-81
2023/04/05 11:25:01;;;;;;;0.10;0.10;;;11.90;99.90;;;;;;5064593;28;20232;-81
2023/04/05 11:27:59;;;;;;;0.10;0.10;;;12.10;99.90;;;;;;5062249;28;20188;-81
2023/04/05 11:30:51;;;;;;;0.10;0.10;;;12.10;99.90;;;;;;5063680;28;20591;-81
2023/04/05 11:33:45;;;;;;;0.10;0.10;;;12.10;99.90;;;;;;5066240;28;20560;-82
2023/04/05 11:36:14;;;;;;;0.10;0.10;;;12.20;99.90;;;;;;5067647;28;20635;-81
2023/04/05 11:38:42;;;;;;;0.10;0.10;;;12.30;99.90;;;;;;5066500;28;20306;-81
2023/04/05 11:41:16;;;;;;;0.10;0.10;;;12.40;99.90;;;;;;5065434;28;20192;-81
2023/04/05 11:43:51;;;;;;;0.10;0.10;;;12.60;99.90;;;;;;5065184;28;20193;-81
2023/04/05 11:46:17;;;;;;;0.10;0.10;;;12.60;99.90;;;;;;5065454;28;20197;-81
2023/04/05 11:48:48;;;;;;;0.10;0.10;;;12.70;99.90;;;;;;5062781;28;20186;-82
2023/04/05 11:51:15;;;;;;;0.10;0.10;;;12.70;99.90;;;;;;5063165;28;20670;-82
2023/04/05 11:53:45;;;;;;;0.10;0.10;;;12.80;99.90;;;;;;5066779;28;20255;-81
2023/04/05 11:56:14;;;;;;;0.10;0.10;;;12.80;99.90;;;;;;5067509;28;20189;-82
2023/04/05 11:58:40;;;;;;;0.10;0.10;;;12.60;99.90;;;;;;5064307;28;21057;-81
2023/04/05 12:01:07;;;;;;;0.10;0.10;;;12.00;99.90;;;;;;5063887;28;20189;-81
2023/04/05 12:03:33;;;;;;;0.10;0.10;;;12.60;99.90;;;;;;5065978;28;20223;-81
2023/04/05 12:06:04;;;;;;;0.10;0.10;;;13.00;99.90;;;;;;5060646;28;20247;-81
2023/04/05 12:08:40;;;;;;;0.10;0.10;;;13.10;99.90;;;;;;5063817;28;20242;-82
2023/04/05 12:11:11;;;;;;;0.10;0.10;;;11.60;99.90;;;;;;5067053;28;20184;-82
2023/04/05 12:13:37;;;;;;;0.10;0.10;;;11.60;99.90;;;;;;5062720;28;20181;-81
2023/04/05 12:16:05;;;;;;;0.10;0.10;;;12.10;99.90;;;;;;5059411;28;20201;-81
2023/04/05 12:18:35;;;;;;;0.10;0.10;;;12.30;99.90;;;;;;5066165;28;20234;-82
2023/04/05 12:21:05;;;;;;;0.10;0.10;;;11.50;99.90;;;;;;5062033;28;20192;-81
2023/04/05 12:23:31;;;;;;;0.10;0.10;;;12.00;99.90;;;;;;5063655;28;20185;-81
2023/04/05 12:25:57;;;;;;;0.10;0.10;;;12.40;99.90;;;;;;5061274;28;21045;-82
2023/04/05 12:28:24;;;;;;;0.10;0.10;;;12.50;99.90;;;;;;5061601;28;20209;-82
2023/04/05 12:30:56;;;;;;;0.10;0.10;;;11.70;99.90;;;;;;5064522;28;20185;-82
2023/04/05 12:33:31;;;;;;;0.10;0.10;;;12.20;99.90;;;;;;5062527;28;20205;-82
2023/04/05 12:35:58;;;;;;;0.10;0.10;;;12.60;99.90;;;;;;5061788;28;20249;-82
2023/04/05 12:38:28;;;;;;;0.10;0.10;;;12.80;99.90;;;;;;5065331;28;20184;-82
2023/04/05 12:41:00;;;;;;;0.10;0.10;;;11.80;99.90;;;;;;5062968;28;20193;-81
2023/04/05 12:43:25;;;;;;;0.10;0.10;;;12.00;99.90;;;;;;5059157;28;20248;-82
2023/04/05 12:45:55;;;;;;;0.10;0.10;;;11.60;99.90;;;;;;5060004;28;20725;-82
2023/04/05 12:48:24;;;;;;;0.10;0.10;;;11.50;99.90;;;;;;5061544;28;20180;-86
2023/04/05 12:50:53;;;;;;;0.10;0.10;;;11.50;99.90;;;;;;5053373;28;20680;-81
2023/04/05 12:53:22;;;;;;;0.10;0.10;;;12.10;99.90;;;;;;5060358;28;20215;-81
2023/04/05 12:55:52;;;;;;;0.10;0.10;;;12.40;99.90;;;;;;5068238;28;20192;-81
2023/04/05 12:58:19;;;;;;;0.10;0.10;;;12.30;99.90;;;;;;5062865;28;20184;-81
2023/04/05 13:00:45;;;;;;;0.67;0.67;;;12.80;99.90;;;;;;5066392;28;20241;-82